sensor_id;sensor_type;location;lat;lon;timestamp;P1;durP1;ratioP1;P2;durP2;ratioP2
56860;SDS011;42744;51.094;3.490;2023-05-10T00:02:15;26.40;;;15.40;;
56860;SDS011;42744;51.094;3.490;2023-05-10T00:04:41;26.90;;;14.73;;
56860;SDS011;42744;51.094;3.490;2023-05-10T00:07:07;23.57;;;15.63;;
56860;SDS011;42744;51.094;3.490;2023-05-10T00:09:32;27.47;;;15.67;;
56860;SDS011;42744;51.094;3.490;2023-05-10T00:11:59;28.70;;;17.57;;
56860;SDS011;42744;51.094;3.490;2023-05-10T00:14:24;34.53;;;18.47;;
56860;SDS011;42744;51.094;3.490;2023-05-10T00:16:50;29.80;;;18.27;;
56860;SDS011;42744;51.094;3.490;2023-05-10T00:19:16;36.83;;;21.17;;
56860;SDS011;42744;51.094;3.490;2023-05-10T00:21:42;33.90;;;20.07;;
56860;SDS011;42744;51.094;3.490;2023-05-10T00:24:08;37.60;;;22.37;;
56860;SDS011;42744;51.094;3.490;2023-05-10T00:26:34;37.47;;;22.33;;
56860;SDS011;42744;51.094;3.490;2023-05-10T00:29:01;38.53;;;22.93;;
56860;SDS011;42744;51.094;3.490;2023-05-10T00:31:27;44.43;;;24.73;;
56860;SDS011;42744;51.094;3.490;2023-05-10T00:33:54;41.13;;;24.10;;
56860;SDS011;42744;51.094;3.490;2023-05-10T00:36:20;47.33;;;23.90;;
56860;SDS011;42744;51.094;3.490;2023-05-10T00:38:46;40.93;;;23.60;;
56860;SDS011;42744;51.094;3.490;2023-05-10T00:41:12;37.87;;;23.37;;
56860;SDS011;42744;51.094;3.490;2023-05-10T00:43:39;42.00;;;24.13;;
56860;SDS011;42744;51.094;3.490;2023-05-10T00:46:05;35.07;;;22.20;;
56860;SDS011;42744;51.094;3.490;2023-05-10T00:48:31;37.70;;;21.47;;
56860;SDS011;42744;51.094;3.490;2023-05-10T00:50:57;39.53;;;21.20;;
56860;SDS011;42744;51.094;3.490;2023-05-10T00:53:24;31.23;;;20.40;;
56860;SDS011;42744;51.094;3.490;2023-05-10T00:55:50;35.43;;;20.60;;
56860;SDS011;42744;51.094;3.490;2023-05-10T00:58:16;36.23;;;20.67;;
56860;SDS011;42744;51.094;3.490;2023-05-10T01:00:42;30.30;;;19.50;;
56860;SDS011;42744;51.094;3.490;2023-05-10T01:03:11;32.33;;;18.47;;
56860;SDS011;42744;51.094;3.490;2023-05-10T01:05:38;29.40;;;18.57;;
56860;SDS011;42744;51.094;3.490;2023-05-10T01:08:04;28.10;;;17.23;;
56860;SDS011;42744;51.094;3.490;2023-05-10T01:10:30;30.60;;;18.07;;
56860;SDS011;42744;51.094;3.490;2023-05-10T01:12:56;28.83;;;19.00;;
56860;SDS011;42744;51.094;3.490;2023-05-10T01:15:24;28.20;;;17.77;;
56860;SDS011;42744;51.094;3.490;2023-05-10T01:17:51;29.67;;;18.50;;
56860;SDS011;42744;51.094;3.490;2023-05-10T01:20:18;25.43;;;16.67;;
56860;SDS011;42744;51.094;3.490;2023-05-10T01:23:31;25.83;;;17.43;;
56860;SDS011;42744;51.094;3.490;2023-05-10T01:28:49;28.80;;;17.83;;
56860;SDS011;42744;51.094;3.490;2023-05-10T01:34:08;27.73;;;16.87;;
56860;SDS011;42744;51.094;3.490;2023-05-10T01:36:52;29.10;;;17.27;;
56860;SDS011;42744;51.094;3.490;2023-05-10T01:39:32;26.17;;;16.57;;
56860;SDS011;42744;51.094;3.490;2023-05-10T01:42:16;28.87;;;17.30;;
56860;SDS011;42744;51.094;3.490;2023-05-10T01:45:07;29.47;;;17.93;;
56860;SDS011;42744;51.094;3.490;2023-05-10T01:47:42;31.20;;;17.97;;
56860;SDS011;42744;51.094;3.490;2023-05-10T01:50:10;29.90;;;17.63;;
56860;SDS011;42744;51.094;3.490;2023-05-10T01:52:52;30.30;;;17.13;;
56860;SDS011;42744;51.094;3.490;2023-05-10T01:55:20;27.37;;;17.30;;
56860;SDS011;42744;51.094;3.490;2023-05-10T01:57:50;27.67;;;16.47;;
56860;SDS011;42744;51.094;3.490;2023-05-10T02:00:21;30.90;;;18.23;;
56860;SDS011;42744;51.094;3.490;2023-05-10T02:02:50;28.70;;;16.73;;
56860;SDS011;42744;51.094;3.490;2023-05-10T02:05:18;26.90;;;16.33;;
56860;SDS011;42744;51.094;3.490;2023-05-10T02:07:45;27.13;;;16.50;;
56860;SDS011;42744;51.094;3.490;2023-05-10T02:10:13;27.67;;;16.10;;
56860;SDS011;42744;51.094;3.490;2023-05-10T02:12:41;28.43;;;16.27;;
56860;SDS011;42744;51.094;3.490;2023-05-10T02:15:10;25.33;;;15.57;;
56860;SDS011;42744;51.094;3.490;2023-05-10T02:17:38;25.07;;;16.27;;
56860;SDS011;42744;51.094;3.490;2023-05-10T02:20:05;28.03;;;16.37;;
56860;SDS011;42744;51.094;3.490;2023-05-10T02:22:33;24.77;;;14.87;;
56860;SDS011;42744;51.094;3.490;2023-05-10T02:25:01;25.43;;;15.73;;
56860;SDS011;42744;51.094;3.490;2023-05-10T02:27:28;22.17;;;14.53;;
56860;SDS011;42744;51.094;3.490;2023-05-10T02:29:55;24.23;;;15.37;;
56860;SDS011;42744;51.094;3.490;2023-05-10T02:32:24;24.37;;;15.17;;
56860;SDS011;42744;51.094;3.490;2023-05-10T02:34:52;22.63;;;14.13;;
56860;SDS011;42744;51.094;3.490;2023-05-10T02:37:20;23.17;;;14.80;;
56860;SDS011;42744;51.094;3.490;2023-05-10T02:39:47;20.43;;;14.60;;
56860;SDS011;42744;51.094;3.490;2023-05-10T02:42:18;22.13;;;13.90;;
56860;SDS011;42744;51.094;3.490;2023-05-10T02:44:50;22.07;;;14.33;;
56860;SDS011;42744;51.094;3.490;2023-05-10T02:47:18;23.20;;;14.70;;
56860;SDS011;42744;51.094;3.490;2023-05-10T02:49:45;24.83;;;14.03;;
56860;SDS011;42744;51.094;3.490;2023-05-10T02:52:11;23.97;;;14.30;;
56860;SDS011;42744;51.094;3.490;2023-05-10T02:54:45;22.83;;;13.33;;
56860;SDS011;42744;51.094;3.490;2023-05-10T02:57:15;22.57;;;14.03;;
56860;SDS011;42744;51.094;3.490;2023-05-10T02:59:44;22.50;;;14.37;;
56860;SDS011;42744;51.094;3.490;2023-05-10T03:02:12;22.43;;;14.67;;
56860;SDS011;42744;51.094;3.490;2023-05-10T03:04:38;22.37;;;13.50;;
56860;SDS011;42744;51.094;3.490;2023-05-10T03:07:04;21.47;;;14.43;;
56860;SDS011;42744;51.094;3.490;2023-05-10T03:09:31;24.03;;;14.47;;
56860;SDS011;42744;51.094;3.490;2023-05-10T03:17:15;25.53;;;14.37;;
56860;SDS011;42744;51.094;3.490;2023-05-10T03:22:26;21.50;;;14.30;;
56860;SDS011;42744;51.094;3.490;2023-05-10T03:24:58;25.23;;;15.73;;
56860;SDS011;42744;51.094;3.490;2023-05-10T03:27:29;25.77;;;15.20;;
56860;SDS011;42744;51.094;3.490;2023-05-10T03:29:58;23.93;;;14.70;;
56860;SDS011;42744;51.094;3.490;2023-05-10T03:32:28;26.93;;;16.83;;
56860;SDS011;42744;51.094;3.490;2023-05-10T03:34:55;25.73;;;17.57;;
56860;SDS011;42744;51.094;3.490;2023-05-10T03:37:23;27.47;;;16.03;;
56860;SDS011;42744;51.094;3.490;2023-05-10T03:39:49;23.50;;;16.07;;
56860;SDS011;42744;51.094;3.490;2023-05-10T03:42:16;25.33;;;17.73;;
56860;SDS011;42744;51.094;3.490;2023-05-10T03:44:43;27.47;;;17.90;;
56860;SDS011;42744;51.094;3.490;2023-05-10T03:47:09;26.03;;;16.87;;
56860;SDS011;42744;51.094;3.490;2023-05-10T03:49:35;29.23;;;18.83;;
56860;SDS011;42744;51.094;3.490;2023-05-10T03:52:01;31.97;;;20.80;;
56860;SDS011;42744;51.094;3.490;2023-05-10T03:54:27;33.43;;;20.50;;
56860;SDS011;42744;51.094;3.490;2023-05-10T03:56:54;33.37;;;20.50;;
56860;SDS011;42744;51.094;3.490;2023-05-10T03:59:20;35.77;;;20.30;;
56860;SDS011;42744;51.094;3.490;2023-05-10T04:01:46;31.03;;;20.30;;
56860;SDS011;42744;51.094;3.490;2023-05-10T04:04:12;34.23;;;20.80;;
56860;SDS011;42744;51.094;3.490;2023-05-10T04:06:38;31.30;;;20.50;;
56860;SDS011;42744;51.094;3.490;2023-05-10T04:09:04;35.73;;;21.10;;
56860;SDS011;42744;51.094;3.490;2023-05-10T04:11:30;32.93;;;21.27;;
56860;SDS011;42744;51.094;3.490;2023-05-10T04:13:56;37.07;;;20.83;;
56860;SDS011;42744;51.094;3.490;2023-05-10T04:16:22;32.40;;;20.40;;
56860;SDS011;42744;51.094;3.490;2023-05-10T04:18:48;38.30;;;21.27;;
56860;SDS011;42744;51.094;3.490;2023-05-10T04:21:14;38.43;;;22.07;;
56860;SDS011;42744;51.094;3.490;2023-05-10T04:23:40;34.33;;;20.90;;
56860;SDS011;42744;51.094;3.490;2023-05-10T04:26:06;32.67;;;21.17;;
56860;SDS011;42744;51.094;3.490;2023-05-10T04:28:32;36.80;;;22.23;;
56860;SDS011;42744;51.094;3.490;2023-05-10T04:31:05;37.77;;;22.97;;
56860;SDS011;42744;51.094;3.490;2023-05-10T04:33:32;33.37;;;21.40;;
56860;SDS011;42744;51.094;3.490;2023-05-10T04:35:59;37.07;;;20.77;;
56860;SDS011;42744;51.094;3.490;2023-05-10T04:38:25;35.87;;;21.93;;
56860;SDS011;42744;51.094;3.490;2023-05-10T04:40:52;33.23;;;21.80;;
56860;SDS011;42744;51.094;3.490;2023-05-10T04:43:18;35.93;;;21.53;;
56860;SDS011;42744;51.094;3.490;2023-05-10T04:45:44;33.83;;;20.80;;
56860;SDS011;42744;51.094;3.490;2023-05-10T04:48:10;34.33;;;20.90;;
56860;SDS011;42744;51.094;3.490;2023-05-10T04:50:36;35.43;;;22.67;;
56860;SDS011;42744;51.094;3.490;2023-05-10T04:53:02;34.03;;;22.17;;
56860;SDS011;42744;51.094;3.490;2023-05-10T04:55:28;34.80;;;21.57;;
56860;SDS011;42744;51.094;3.490;2023-05-10T04:57:54;37.77;;;22.53;;
56860;SDS011;42744;51.094;3.490;2023-05-10T05:00:22;36.50;;;22.03;;
56860;SDS011;42744;51.094;3.490;2023-05-10T05:02:49;34.73;;;21.27;;
56860;SDS011;42744;51.094;3.490;2023-05-10T05:05:14;31.60;;;21.10;;
56860;SDS011;42744;51.094;3.490;2023-05-10T05:07:40;33.50;;;21.20;;
56860;SDS011;42744;51.094;3.490;2023-05-10T05:10:07;34.67;;;21.20;;
56860;SDS011;42744;51.094;3.490;2023-05-10T05:12:34;31.07;;;20.23;;
56860;SDS011;42744;51.094;3.490;2023-05-10T05:15:00;33.43;;;19.87;;
56860;SDS011;42744;51.094;3.490;2023-05-10T05:17:27;32.60;;;22.13;;
56860;SDS011;42744;51.094;3.490;2023-05-10T05:19:55;33.23;;;19.77;;
56860;SDS011;42744;51.094;3.490;2023-05-10T05:22:21;34.47;;;21.43;;
56860;SDS011;42744;51.094;3.490;2023-05-10T05:24:56;32.13;;;20.07;;
56860;SDS011;42744;51.094;3.490;2023-05-10T05:27:23;28.10;;;19.00;;
56860;SDS011;42744;51.094;3.490;2023-05-10T05:29:54;25.87;;;18.73;;
56860;SDS011;42744;51.094;3.490;2023-05-10T05:32:21;28.20;;;18.33;;
56860;SDS011;42744;51.094;3.490;2023-05-10T05:34:47;24.87;;;17.63;;
56860;SDS011;42744;51.094;3.490;2023-05-10T05:37:14;28.97;;;18.53;;
56860;SDS011;42744;51.094;3.490;2023-05-10T05:39:41;25.43;;;17.13;;
56860;SDS011;42744;51.094;3.490;2023-05-10T05:42:08;24.83;;;16.93;;
56860;SDS011;42744;51.094;3.490;2023-05-10T05:44:35;24.27;;;15.63;;
56860;SDS011;42744;51.094;3.490;2023-05-10T05:47:01;27.40;;;16.83;;
56860;SDS011;42744;51.094;3.490;2023-05-10T05:49:27;25.43;;;17.20;;
56860;SDS011;42744;51.094;3.490;2023-05-10T05:51:53;25.20;;;16.67;;
56860;SDS011;42744;51.094;3.490;2023-05-10T05:54:20;22.80;;;15.77;;
56860;SDS011;42744;51.094;3.490;2023-05-10T05:56:46;23.13;;;15.27;;
56860;SDS011;42744;51.094;3.490;2023-05-10T05:59:12;22.60;;;15.17;;
56860;SDS011;42744;51.094;3.490;2023-05-10T06:01:38;24.10;;;14.17;;
56860;SDS011;42744;51.094;3.490;2023-05-10T06:04:04;22.27;;;14.80;;
56860;SDS011;42744;51.094;3.490;2023-05-10T06:06:40;21.57;;;15.03;;
56860;SDS011;42744;51.094;3.490;2023-05-10T06:09:06;22.27;;;15.93;;
56860;SDS011;42744;51.094;3.490;2023-05-10T06:11:32;23.07;;;15.70;;
56860;SDS011;42744;51.094;3.490;2023-05-10T06:13:58;24.50;;;17.17;;
56860;SDS011;42744;51.094;3.490;2023-05-10T06:16:24;22.63;;;15.63;;
56860;SDS011;42744;51.094;3.490;2023-05-10T06:18:50;23.43;;;15.00;;
56860;SDS011;42744;51.094;3.490;2023-05-10T06:21:16;26.47;;;16.93;;
56860;SDS011;42744;51.094;3.490;2023-05-10T06:23:43;25.20;;;16.03;;
56860;SDS011;42744;51.094;3.490;2023-05-10T06:26:09;25.73;;;17.00;;
56860;SDS011;42744;51.094;3.490;2023-05-10T06:28:35;22.30;;;14.93;;
56860;SDS011;42744;51.094;3.490;2023-05-10T06:31:04;22.37;;;14.47;;
56860;SDS011;42744;51.094;3.490;2023-05-10T06:33:30;24.90;;;16.70;;
56860;SDS011;42744;51.094;3.490;2023-05-10T06:35:56;23.57;;;15.77;;
56860;SDS011;42744;51.094;3.490;2023-05-10T06:38:22;22.20;;;15.43;;
56860;SDS011;42744;51.094;3.490;2023-05-10T06:40:48;18.50;;;13.13;;
56860;SDS011;42744;51.094;3.490;2023-05-10T06:43:14;16.53;;;12.20;;
56860;SDS011;42744;51.094;3.490;2023-05-10T06:45:40;18.50;;;12.40;;
56860;SDS011;42744;51.094;3.490;2023-05-10T06:48:07;18.20;;;11.50;;
56860;SDS011;42744;51.094;3.490;2023-05-10T06:50:33;15.83;;;11.50;;
56860;SDS011;42744;51.094;3.490;2023-05-10T06:52:59;17.03;;;12.47;;
56860;SDS011;42744;51.094;3.490;2023-05-10T06:55:26;18.37;;;13.17;;
56860;SDS011;42744;51.094;3.490;2023-05-10T06:57:52;17.80;;;12.63;;
56860;SDS011;42744;51.094;3.490;2023-05-10T07:00:19;16.83;;;12.20;;
56860;SDS011;42744;51.094;3.490;2023-05-10T07:02:45;17.63;;;13.13;;
56860;SDS011;42744;51.094;3.490;2023-05-10T07:05:12;20.33;;;14.80;;
56860;SDS011;42744;51.094;3.490;2023-05-10T07:07:38;20.13;;;14.43;;
56860;SDS011;42744;51.094;3.490;2023-05-10T07:10:05;19.50;;;14.07;;
56860;SDS011;42744;51.094;3.490;2023-05-10T07:12:32;19.23;;;13.53;;
56860;SDS011;42744;51.094;3.490;2023-05-10T07:14:58;21.03;;;13.53;;
56860;SDS011;42744;51.094;3.490;2023-05-10T07:17:24;18.47;;;11.93;;
56860;SDS011;42744;51.094;3.490;2023-05-10T07:19:50;14.93;;;10.50;;
56860;SDS011;42744;51.094;3.490;2023-05-10T07:22:16;15.53;;;10.87;;
56860;SDS011;42744;51.094;3.490;2023-05-10T07:24:42;15.67;;;11.13;;
56860;SDS011;42744;51.094;3.490;2023-05-10T07:27:08;20.33;;;11.97;;
56860;SDS011;42744;51.094;3.490;2023-05-10T07:29:35;16.63;;;11.70;;
56860;SDS011;42744;51.094;3.490;2023-05-10T07:32:01;20.47;;;12.90;;
56860;SDS011;42744;51.094;3.490;2023-05-10T07:34:27;21.87;;;12.70;;
56860;SDS011;42744;51.094;3.490;2023-05-10T07:36:57;18.37;;;12.73;;
56860;SDS011;42744;51.094;3.490;2023-05-10T07:39:23;17.60;;;12.23;;
56860;SDS011;42744;51.094;3.490;2023-05-10T07:41:49;18.33;;;13.10;;
56860;SDS011;42744;51.094;3.490;2023-05-10T07:44:16;27.87;;;18.63;;
56860;SDS011;42744;51.094;3.490;2023-05-10T07:46:44;26.03;;;17.53;;
56860;SDS011;42744;51.094;3.490;2023-05-10T07:49:10;24.13;;;16.90;;
56860;SDS011;42744;51.094;3.490;2023-05-10T07:51:36;22.87;;;15.83;;
56860;SDS011;42744;51.094;3.490;2023-05-10T07:54:02;25.90;;;15.47;;
56860;SDS011;42744;51.094;3.490;2023-05-10T07:56:29;21.20;;;14.67;;
56860;SDS011;42744;51.094;3.490;2023-05-10T07:58:57;24.33;;;15.13;;
56860;SDS011;42744;51.094;3.490;2023-05-10T08:01:24;19.90;;;14.20;;
56860;SDS011;42744;51.094;3.490;2023-05-10T08:03:51;20.80;;;14.53;;
56860;SDS011;42744;51.094;3.490;2023-05-10T08:06:19;23.80;;;16.50;;
56860;SDS011;42744;51.094;3.490;2023-05-10T08:08:45;29.13;;;17.53;;
56860;SDS011;42744;51.094;3.490;2023-05-10T08:11:15;25.00;;;16.43;;
56860;SDS011;42744;51.094;3.490;2023-05-10T08:13:42;24.53;;;15.57;;
56860;SDS011;42744;51.094;3.490;2023-05-10T08:16:12;18.97;;;13.13;;
56860;SDS011;42744;51.094;3.490;2023-05-10T08:18:38;18.27;;;13.47;;
56860;SDS011;42744;51.094;3.490;2023-05-10T08:21:05;19.00;;;13.73;;
56860;SDS011;42744;51.094;3.490;2023-05-10T08:23:31;16.77;;;12.00;;
56860;SDS011;42744;51.094;3.490;2023-05-10T08:25:58;17.27;;;11.53;;
56860;SDS011;42744;51.094;3.490;2023-05-10T08:28:25;18.67;;;10.73;;
56860;SDS011;42744;51.094;3.490;2023-05-10T08:30:51;12.83;;;10.00;;
56860;SDS011;42744;51.094;3.490;2023-05-10T08:33:18;16.17;;;10.47;;
56860;SDS011;42744;51.094;3.490;2023-05-10T08:35:44;13.80;;;11.10;;
56860;SDS011;42744;51.094;3.490;2023-05-10T08:38:10;18.13;;;11.27;;
56860;SDS011;42744;51.094;3.490;2023-05-10T08:40:36;17.07;;;11.53;;
56860;SDS011;42744;51.094;3.490;2023-05-10T08:43:06;18.00;;;12.57;;
56860;SDS011;42744;51.094;3.490;2023-05-10T08:45:37;17.87;;;12.77;;
56860;SDS011;42744;51.094;3.490;2023-05-10T08:48:05;17.17;;;13.33;;
56860;SDS011;42744;51.094;3.490;2023-05-10T08:50:36;18.30;;;13.33;;
56860;SDS011;42744;51.094;3.490;2023-05-10T08:53:04;17.77;;;13.20;;
56860;SDS011;42744;51.094;3.490;2023-05-10T08:55:38;19.20;;;12.67;;
56860;SDS011;42744;51.094;3.490;2023-05-10T08:58:05;18.10;;;13.20;;
56860;SDS011;42744;51.094;3.490;2023-05-10T09:00:32;21.27;;;15.13;;
56860;SDS011;42744;51.094;3.490;2023-05-10T09:02:59;17.43;;;13.53;;
56860;SDS011;42744;51.094;3.490;2023-05-10T09:05:25;19.43;;;14.13;;
56860;SDS011;42744;51.094;3.490;2023-05-10T09:07:51;16.60;;;12.80;;
56860;SDS011;42744;51.094;3.490;2023-05-10T09:10:17;15.97;;;12.93;;
56860;SDS011;42744;51.094;3.490;2023-05-10T09:12:44;16.43;;;12.43;;
56860;SDS011;42744;51.094;3.490;2023-05-10T09:15:10;17.30;;;12.67;;
56860;SDS011;42744;51.094;3.490;2023-05-10T09:17:40;16.70;;;13.53;;
56860;SDS011;42744;51.094;3.490;2023-05-10T09:20:07;17.47;;;13.90;;
56860;SDS011;42744;51.094;3.490;2023-05-10T09:22:33;19.13;;;13.73;;
56860;SDS011;42744;51.094;3.490;2023-05-10T09:25:07;16.23;;;13.17;;
56860;SDS011;42744;51.094;3.490;2023-05-10T09:27:33;17.30;;;12.83;;
56860;SDS011;42744;51.094;3.490;2023-05-10T09:30:00;14.33;;;12.57;;
56860;SDS011;42744;51.094;3.490;2023-05-10T09:32:37;16.67;;;13.23;;
56860;SDS011;42744;51.094;3.490;2023-05-10T09:35:08;16.03;;;12.80;;
56860;SDS011;42744;51.094;3.490;2023-05-10T09:37:41;15.80;;;13.27;;
56860;SDS011;42744;51.094;3.490;2023-05-10T09:40:13;15.47;;;12.03;;
56860;SDS011;42744;51.094;3.490;2023-05-10T09:45:24;14.57;;;12.37;;
56860;SDS011;42744;51.094;3.490;2023-05-10T09:47:54;17.13;;;13.07;;
56860;SDS011;42744;51.094;3.490;2023-05-10T09:50:22;16.70;;;12.30;;
56860;SDS011;42744;51.094;3.490;2023-05-10T09:52:58;16.43;;;12.80;;
56860;SDS011;42744;51.094;3.490;2023-05-10T09:55:37;18.87;;;12.40;;
56860;SDS011;42744;51.094;3.490;2023-05-10T09:58:05;15.63;;;11.87;;
56860;SDS011;42744;51.094;3.490;2023-05-10T10:00:39;15.27;;;11.90;;
56860;SDS011;42744;51.094;3.490;2023-05-10T10:03:06;15.37;;;12.43;;
56860;SDS011;42744;51.094;3.490;2023-05-10T10:05:42;16.43;;;12.10;;
56860;SDS011;42744;51.094;3.490;2023-05-10T10:08:09;15.73;;;12.33;;
56860;SDS011;42744;51.094;3.490;2023-05-10T10:10:36;16.77;;;12.50;;
56860;SDS011;42744;51.094;3.490;2023-05-10T10:13:03;14.47;;;12.33;;
56860;SDS011;42744;51.094;3.490;2023-05-10T10:15:30;15.83;;;13.13;;
56860;SDS011;42744;51.094;3.490;2023-05-10T10:17:57;18.70;;;13.67;;
56860;SDS011;42744;51.094;3.490;2023-05-10T10:20:25;16.73;;;13.40;;
56860;SDS011;42744;51.094;3.490;2023-05-10T10:22:52;17.97;;;14.13;;
56860;SDS011;42744;51.094;3.490;2023-05-10T10:25:19;19.57;;;15.70;;
56860;SDS011;42744;51.094;3.490;2023-05-10T10:35:39;23.47;;;19.23;;
56860;SDS011;42744;51.094;3.490;2023-05-10T10:38:07;26.17;;;20.00;;
56860;SDS011;42744;51.094;3.490;2023-05-10T10:40:33;28.30;;;19.50;;
56860;SDS011;42744;51.094;3.490;2023-05-10T10:48:39;30.13;;;22.23;;
56860;SDS011;42744;51.094;3.490;2023-05-10T10:51:23;24.30;;;20.40;;
56860;SDS011;42744;51.094;3.490;2023-05-10T10:53:53;26.20;;;20.13;;
56860;SDS011;42744;51.094;3.490;2023-05-10T10:56:21;35.27;;;21.73;;
56860;SDS011;42744;51.094;3.490;2023-05-10T10:58:49;30.23;;;20.57;;
56860;SDS011;42744;51.094;3.490;2023-05-10T11:01:19;28.67;;;20.53;;
56860;SDS011;42744;51.094;3.490;2023-05-10T11:06:45;27.43;;;20.97;;
56860;SDS011;42744;51.094;3.490;2023-05-10T11:09:11;27.67;;;20.60;;
56860;SDS011;42744;51.094;3.490;2023-05-10T11:11:53;30.20;;;20.30;;
56860;SDS011;42744;51.094;3.490;2023-05-10T11:14:23;28.47;;;20.60;;
56860;SDS011;42744;51.094;3.490;2023-05-10T11:16:50;28.90;;;19.20;;
56860;SDS011;42744;51.094;3.490;2023-05-10T11:19:17;30.43;;;20.07;;
56860;SDS011;42744;51.094;3.490;2023-05-10T11:22:28;29.87;;;20.27;;
56860;SDS011;42744;51.094;3.490;2023-05-10T11:24:30;26.47;;;18.57;;
56860;SDS011;42744;51.094;3.490;2023-05-10T11:26:56;31.33;;;20.07;;
56860;SDS011;42744;51.094;3.490;2023-05-10T11:29:23;27.93;;;19.13;;
56860;SDS011;42744;51.094;3.490;2023-05-10T11:31:51;27.90;;;19.27;;
56860;SDS011;42744;51.094;3.490;2023-05-10T11:34:24;28.87;;;18.33;;
56860;SDS011;42744;51.094;3.490;2023-05-10T11:36:52;26.93;;;18.60;;
56860;SDS011;42744;51.094;3.490;2023-05-10T11:39:25;29.53;;;19.63;;
56860;SDS011;42744;51.094;3.490;2023-05-10T11:41:55;29.47;;;19.63;;
56860;SDS011;42744;51.094;3.490;2023-05-10T11:44:22;29.33;;;18.97;;
56860;SDS011;42744;51.094;3.490;2023-05-10T11:46:48;27.57;;;17.30;;
56860;SDS011;42744;51.094;3.490;2023-05-10T11:49:14;25.70;;;18.40;;
56860;SDS011;42744;51.094;3.490;2023-05-10T11:51:41;24.67;;;19.17;;
56860;SDS011;42744;51.094;3.490;2023-05-10T11:54:09;28.83;;;19.47;;
56860;SDS011;42744;51.094;3.490;2023-05-10T11:56:37;30.00;;;18.93;;
56860;SDS011;42744;51.094;3.490;2023-05-10T11:59:04;24.10;;;18.23;;
56860;SDS011;42744;51.094;3.490;2023-05-10T12:01:30;23.73;;;16.70;;
56860;SDS011;42744;51.094;3.490;2023-05-10T12:03:57;21.33;;;13.20;;
56860;SDS011;42744;51.094;3.490;2023-05-10T12:06:31;19.40;;;13.77;;
56860;SDS011;42744;51.094;3.490;2023-05-10T12:09:05;19.60;;;11.97;;
56860;SDS011;42744;51.094;3.490;2023-05-10T12:11:35;18.97;;;11.80;;
56860;SDS011;42744;51.094;3.490;2023-05-10T12:14:04;16.13;;;11.27;;
56860;SDS011;42744;51.094;3.490;2023-05-10T12:16:30;19.30;;;10.57;;
56860;SDS011;42744;51.094;3.490;2023-05-10T12:18:57;19.20;;;11.13;;
56860;SDS011;42744;51.094;3.490;2023-05-10T12:21:25;17.93;;;10.90;;
56860;SDS011;42744;51.094;3.490;2023-05-10T12:23:53;18.13;;;10.83;;
56860;SDS011;42744;51.094;3.490;2023-05-10T12:26:24;17.33;;;11.07;;
56860;SDS011;42744;51.094;3.490;2023-05-10T12:28:54;16.53;;;10.97;;
56860;SDS011;42744;51.094;3.490;2023-05-10T12:31:48;21.77;;;11.93;;
56860;SDS011;42744;51.094;3.490;2023-05-10T12:34:25;16.90;;;11.13;;
56860;SDS011;42744;51.094;3.490;2023-05-10T12:36:59;16.50;;;10.60;;
56860;SDS011;42744;51.094;3.490;2023-05-10T12:39:25;15.33;;;10.00;;
56860;SDS011;42744;51.094;3.490;2023-05-10T12:42:02;18.60;;;9.67;;
56860;SDS011;42744;51.094;3.490;2023-05-10T12:44:28;15.23;;;10.33;;
56860;SDS011;42744;51.094;3.490;2023-05-10T12:46:54;13.77;;;8.90;;
56860;SDS011;42744;51.094;3.490;2023-05-10T12:49:20;16.00;;;9.37;;
56860;SDS011;42744;51.094;3.490;2023-05-10T12:51:46;15.47;;;9.57;;
56860;SDS011;42744;51.094;3.490;2023-05-10T12:54:12;16.47;;;9.50;;
56860;SDS011;42744;51.094;3.490;2023-05-10T12:56:38;15.40;;;8.93;;
56860;SDS011;42744;51.094;3.490;2023-05-10T12:59:06;20.40;;;9.53;;
56860;SDS011;42744;51.094;3.490;2023-05-10T13:01:32;18.80;;;9.23;;
56860;SDS011;42744;51.094;3.490;2023-05-10T13:03:57;18.90;;;8.37;;
56860;SDS011;42744;51.094;3.490;2023-05-10T13:06:25;13.40;;;6.97;;
56860;SDS011;42744;51.094;3.490;2023-05-10T13:08:51;12.97;;;7.77;;
56860;SDS011;42744;51.094;3.490;2023-05-10T13:11:17;11.83;;;7.13;;
56860;SDS011;42744;51.094;3.490;2023-05-10T13:13:45;12.87;;;7.87;;
56860;SDS011;42744;51.094;3.490;2023-05-10T13:16:11;12.57;;;7.13;;
56860;SDS011;42744;51.094;3.490;2023-05-10T13:18:36;12.47;;;6.80;;
56860;SDS011;42744;51.094;3.490;2023-05-10T13:21:03;12.20;;;6.60;;
56860;SDS011;42744;51.094;3.490;2023-05-10T13:23:30;11.77;;;7.00;;
56860;SDS011;42744;51.094;3.490;2023-05-10T13:25:56;16.63;;;7.10;;
56860;SDS011;42744;51.094;3.490;2023-05-10T13:28:22;12.93;;;6.60;;
56860;SDS011;42744;51.094;3.490;2023-05-10T13:30:48;12.90;;;6.37;;
56860;SDS011;42744;51.094;3.490;2023-05-10T13:33:14;11.90;;;6.13;;
56860;SDS011;42744;51.094;3.490;2023-05-10T13:35:40;11.67;;;6.70;;
56860;SDS011;42744;51.094;3.490;2023-05-10T13:38:06;10.97;;;6.03;;
56860;SDS011;42744;51.094;3.490;2023-05-10T13:40:33;12.70;;;5.90;;
56860;SDS011;42744;51.094;3.490;2023-05-10T13:42:59;11.77;;;5.43;;
56860;SDS011;42744;51.094;3.490;2023-05-10T13:45:25;15.20;;;5.90;;
56860;SDS011;42744;51.094;3.490;2023-05-10T13:47:51;10.90;;;5.47;;
56860;SDS011;42744;51.094;3.490;2023-05-10T13:50:17;13.13;;;5.33;;
56860;SDS011;42744;51.094;3.490;2023-05-10T13:52:43;11.80;;;5.20;;
56860;SDS011;42744;51.094;3.490;2023-05-10T13:55:09;17.97;;;5.60;;
56860;SDS011;42744;51.094;3.490;2023-05-10T13:57:37;12.97;;;5.00;;
56860;SDS011;42744;51.094;3.490;2023-05-10T14:00:03;11.07;;;4.13;;
56860;SDS011;42744;51.094;3.490;2023-05-10T14:02:33;9.27;;;4.63;;
56860;SDS011;42744;51.094;3.490;2023-05-10T14:04:59;11.53;;;4.00;;
56860;SDS011;42744;51.094;3.490;2023-05-10T14:07:25;9.90;;;4.43;;
56860;SDS011;42744;51.094;3.490;2023-05-10T14:09:51;8.77;;;3.80;;
56860;SDS011;42744;51.094;3.490;2023-05-10T14:12:17;9.17;;;2.90;;
56860;SDS011;42744;51.094;3.490;2023-05-10T14:14:43;9.67;;;3.70;;
56860;SDS011;42744;51.094;3.490;2023-05-10T14:17:08;9.70;;;3.50;;
56860;SDS011;42744;51.094;3.490;2023-05-10T14:19:35;9.70;;;3.57;;
56860;SDS011;42744;51.094;3.490;2023-05-10T14:22:01;10.57;;;3.43;;
56860;SDS011;42744;51.094;3.490;2023-05-10T14:24:27;9.23;;;2.93;;
56860;SDS011;42744;51.094;3.490;2023-05-10T14:26:53;6.30;;;2.80;;
56860;SDS011;42744;51.094;3.490;2023-05-10T14:29:20;8.50;;;3.40;;
56860;SDS011;42744;51.094;3.490;2023-05-10T14:31:46;7.60;;;2.30;;
56860;SDS011;42744;51.094;3.490;2023-05-10T14:34:12;6.33;;;2.50;;
56860;SDS011;42744;51.094;3.490;2023-05-10T14:36:38;9.53;;;3.17;;
56860;SDS011;42744;51.094;3.490;2023-05-10T14:39:04;9.53;;;3.17;;
56860;SDS011;42744;51.094;3.490;2023-05-10T14:41:32;7.03;;;3.20;;
56860;SDS011;42744;51.094;3.490;2023-05-10T14:43:58;9.13;;;3.03;;
56860;SDS011;42744;51.094;3.490;2023-05-10T14:46:24;7.23;;;2.87;;
56860;SDS011;42744;51.094;3.490;2023-05-10T14:48:50;8.57;;;2.77;;
56860;SDS011;42744;51.094;3.490;2023-05-10T14:51:16;11.27;;;3.63;;
56860;SDS011;42744;51.094;3.490;2023-05-10T14:53:42;8.20;;;3.03;;
56860;SDS011;42744;51.094;3.490;2023-05-10T14:56:08;11.07;;;3.47;;
56860;SDS011;42744;51.094;3.490;2023-05-10T14:58:34;10.77;;;4.30;;
56860;SDS011;42744;51.094;3.490;2023-05-10T15:01:00;8.73;;;3.40;;